createdAt,value
2023-05-14T05:06:08.398Z,99658.69
2023-05-14T05:11:12.739Z,99673.88
2023-05-14T05:16:15.924Z,99654.31
2023-05-14T05:21:19.031Z,99650.09
2023-05-14T05:26:23.676Z,99647.13
2023-05-14T05:31:26.729Z,99637.75
2023-05-14T05:36:29.946Z,99637.31
2023-05-14T05:41:34.327Z,99628.44
2023-05-14T05:46:37.503Z,99626.66
2023-05-14T05:51:41.070Z,99619.38
2023-05-14T05:56:45.516Z,99629.44
2023-05-14T06:01:48.638Z,99625.28
2023-05-14T06:06:51.690Z,99630.34
2023-05-14T06:11:56.417Z,99624.66
2023-05-14T06:16:59.631Z,99632.47
2023-05-14T06:22:02.955Z,99632.84
2023-05-14T06:27:08.095Z,99637.25
2023-05-14T06:32:14.133Z,99635.44
2023-05-14T06:37:17.669Z,99637.59
2023-05-14T06:42:22.339Z,99626.63
2023-05-14T06:47:26.218Z,99625.56
2023-05-14T06:52:29.511Z,99626.56
2023-05-14T06:57:35.297Z,99616.44
2023-05-14T07:02:38.388Z,99633.81
2023-05-14T07:07:41.421Z,99617.41
2023-05-14T07:12:46.250Z,99623.44
2023-05-14T07:17:49.531Z,99614.75
2023-05-14T07:22:53.852Z,99614.66
2023-05-14T07:27:58.233Z,99607.94
2023-05-14T07:33:01.282Z,99610.66
2023-05-14T07:38:05.747Z,99603.69
2023-05-14T07:43:11.336Z,99611.41
2023-05-14T07:48:15.130Z,99592.66
2023-05-14T07:53:18.635Z,99598.69
2023-05-14T07:58:23.819Z,99595.69
2023-05-14T08:03:27.012Z,99596.56
2023-05-14T08:08:30.232Z,99588.09
2023-05-14T08:13:34.978Z,99587.44
2023-05-14T08:18:38.279Z,99580.06
2023-05-14T08:23:41.783Z,99577.94
2023-05-14T08:28:46.137Z,99571.63
2023-05-14T08:33:49.585Z,99561.28
2023-05-14T08:38:52.675Z,99558.72
2023-05-14T08:44:07.576Z,99549.66
2023-05-14T08:49:21.095Z,99551.75
2023-05-14T08:54:26.209Z,99547.41
2023-05-14T08:59:31.123Z,99544.84
2023-05-14T09:04:35.293Z,99544.59
2023-05-14T09:09:39.026Z,99532.94
2023-05-14T09:14:43.791Z,99531.47
2023-05-14T09:19:49.069Z,99523.88
2023-05-14T09:25:09.714Z,99519.41
2023-05-14T09:30:20.573Z,99525.97
2023-05-14T09:35:26.584Z,99526.84
2023-05-14T09:40:30.142Z,99525.81
2023-05-14T09:45:36.540Z,99522.84
2023-05-14T09:50:43.193Z,99514.84
2023-05-14T09:55:46.829Z,99515.41
2023-05-14T10:00:52.254Z,99515.00
2023-05-14T10:05:57.395Z,99522.47
2023-05-14T10:11:04.390Z,99518.84
2023-05-14T10:16:13.796Z,99510.31
2023-05-14T10:21:21.801Z,99517.47
2023-05-14T10:26:26.206Z,99515.63
2023-05-14T10:31:49.580Z,99514.69
2023-05-14T10:36:52.751Z,99506.84
2023-05-14T10:41:55.903Z,99501.88
2023-05-14T10:47:01.042Z,99499.28
2023-05-14T10:52:04.271Z,99496.56
2023-05-14T10:57:12.774Z,99480.91
2023-05-14T11:02:22.741Z,99486.91
2023-05-14T11:07:30.597Z,99485.69
2023-05-14T11:12:34.112Z,99477.19
2023-05-14T11:17:40.282Z,99478.72
2023-05-14T11:22:44.165Z,99475.97
2023-05-14T11:27:48.004Z,99463.19
2023-05-14T11:32:52.876Z,99462.81
2023-05-14T11:37:56.830Z,99465.16
2023-05-14T11:43:01.202Z,99443.19
2023-05-14T11:48:13.054Z,99433.03
2023-05-14T11:53:19.863Z,99438.03
2023-05-14T11:58:23.045Z,99443.75
2023-05-14T12:03:30.144Z,99434.72
2023-05-14T12:08:34.250Z,99431.56
2023-05-14T12:13:38.318Z,99425.06
2023-05-14T12:18:44.262Z,99420.84
2023-05-14T12:23:47.519Z,99411.91
2023-05-14T12:28:50.732Z,99397.50
2023-05-14T12:33:55.543Z,99384.00
2023-05-14T12:39:01.134Z,99374.38
2023-05-14T12:44:06.086Z,99372.88
2023-05-14T12:49:11.122Z,99364.91
2023-05-14T12:54:15.762Z,99376.41
2023-05-14T12:59:18.993Z,99358.91
2023-05-14T13:04:23.792Z,99352.84
2023-05-14T13:09:28.157Z,99337.75
2023-05-14T13:14:31.601Z,99330.03
2023-05-14T13:19:36.163Z,99330.03
2023-05-14T13:24:39.752Z,99332.81
2023-05-14T13:29:43.289Z,99325.34
2023-05-14T13:34:48.184Z,99324.63
2023-05-14T13:39:51.698Z,99323.25
2023-05-14T13:44:56.277Z,99322.50
2023-05-14T13:50:01.091Z,99308.09
2023-05-14T13:55:04.894Z,99318.56
2023-05-14T14:00:09.851Z,99316.66
2023-05-14T14:05:14.685Z,99299.94
2023-05-14T14:10:18.471Z,99299.28
2023-05-14T14:15:21.736Z,99291.78
2023-05-14T14:20:26.550Z,99281.84
2023-05-14T14:25:29.737Z,99277.38
2023-05-14T14:30:33.848Z,99280.03
2023-05-14T14:35:38.511Z,99265.13
2023-05-14T14:40:42.042Z,99268.47
2023-05-14T14:45:48.180Z,99264.66
2023-05-14T14:50:54.171Z,99267.38
2023-05-14T14:55:58.196Z,99275.44
2023-05-14T15:01:01.979Z,99277.81
2023-05-14T15:06:06.786Z,99279.47
2023-05-14T15:11:10.244Z,99282.53
2023-05-14T15:16:13.765Z,99306.94
2023-05-14T15:21:18.315Z,99307.09
2023-05-14T15:26:21.906Z,99299.25
2023-05-14T15:31:25.421Z,99294.19
2023-05-14T15:36:29.957Z,99300.09
2023-05-14T15:41:34.329Z,99298.50
2023-05-14T15:46:38.201Z,99304.84
2023-05-14T15:51:43.032Z,99281.91
2023-05-14T15:56:46.502Z,99287.44
2023-05-14T16:01:50.184Z,99263.63
2023-05-14T16:06:54.989Z,99261.53
2023-05-14T16:11:58.222Z,99258.81
2023-05-14T16:17:02.361Z,99253.97
2023-05-14T16:22:07.015Z,99249.34
2023-05-14T16:27:10.164Z,99251.34
2023-05-14T16:32:13.650Z,99246.41
2023-05-14T16:37:19.807Z,99237.59
2023-05-14T16:42:23.233Z,99247.03
2023-05-14T16:47:26.525Z,99247.09
2023-05-14T16:52:31.582Z,99240.59
2023-05-14T16:57:35.174Z,99244.72
2023-05-14T17:02:38.327Z,99235.91
2023-05-14T17:07:43.044Z,99231.22
2023-05-14T17:12:46.196Z,99227.69
2023-05-14T17:17:49.216Z,99232.53
2023-05-14T17:22:53.802Z,99244.59
2023-05-14T17:27:56.849Z,99247.94
2023-05-14T17:32:59.997Z,99242.13
2023-05-14T17:38:04.510Z,99237.13
2023-05-14T17:43:08.408Z,99246.75
2023-05-14T17:48:11.885Z,99239.19
2023-05-14T17:53:16.401Z,99244.28
2023-05-14T17:58:19.530Z,99244.28
2023-05-14T18:03:22.583Z,99249.19
2023-05-14T18:08:27.042Z,99242.22
2023-05-14T18:13:30.099Z,99240.25
2023-05-14T18:18:33.184Z,99249.56
2023-05-14T18:23:37.568Z,99249.94
2023-05-14T18:28:40.922Z,99258.56
2023-05-14T18:33:44.038Z,99262.25
2023-05-14T18:38:48.459Z,99268.09
2023-05-14T18:43:51.521Z,99265.19
2023-05-14T18:48:54.600Z,99278.50
2023-05-14T18:53:59.005Z,99272.69
2023-05-14T18:59:02.034Z,99288.34
2023-05-14T19:04:06.426Z,99292.75
2023-05-14T19:09:11.193Z,99293.44
2023-05-14T19:14:14.212Z,99300.09
2023-05-14T19:19:17.321Z,99304.34
2023-05-14T19:24:21.762Z,99306.03
2023-05-14T19:29:24.866Z,99306.78
2023-05-14T19:34:27.979Z,99304.09
2023-05-14T19:39:32.593Z,99301.78
2023-05-14T19:44:36.052Z,99312.13
2023-05-14T19:49:39.085Z,99306.47
2023-05-14T19:54:43.446Z,99298.66
2023-05-14T19:59:46.544Z,99306.84
2023-05-14T20:04:49.972Z,99301.09
2023-05-14T20:09:54.334Z,99303.91
2023-05-14T20:14:57.360Z,99301.16
2023-05-14T20:20:00.727Z,99299.19
2023-05-14T20:25:05.728Z,99294.00
2023-05-14T20:30:09.748Z,99292.16
2023-05-14T20:35:12.797Z,99288.75
2023-05-14T20:40:17.214Z,99276.88
2023-05-14T20:45:20.274Z,99287.94
2023-05-14T20:50:23.442Z,99287.63
2023-05-14T20:55:28.169Z,99291.50
2023-05-14T21:00:32.499Z,99286.00
2023-05-14T21:05:36.068Z,99291.03
2023-05-14T21:10:40.890Z,99293.81
2023-05-14T21:15:44.040Z,99295.88
2023-05-14T21:20:47.449Z,99288.59
2023-05-14T21:25:54.580Z,99284.00
2023-05-14T21:30:57.990Z,99277.75
2023-05-14T21:36:01.396Z,99277.63
2023-05-14T21:41:06.282Z,99283.41
2023-05-14T21:46:10.251Z,99288.66
2023-05-14T21:51:13.375Z,99287.28
2023-05-14T21:56:18.311Z,99267.59
2023-05-14T22:01:21.961Z,99274.53
2023-05-14T22:06:25.168Z,99276.78
2023-05-14T22:11:29.620Z,99261.09
2023-05-14T22:16:33.382Z,99256.03
2023-05-14T22:21:36.477Z,99259.06
2023-05-14T22:26:41.370Z,99267.59
2023-05-14T22:31:44.588Z,99260.59
2023-05-14T22:36:48.252Z,99259.59
2023-05-14T22:41:55.384Z,99246.16
2023-05-14T22:46:59.136Z,99243.63
2023-05-14T22:52:02.326Z,99236.66
2023-05-14T22:57:07.531Z,99230.38
2023-05-14T23:02:11.309Z,99221.38
2023-05-14T23:07:15.198Z,99209.63
2023-05-14T23:12:19.945Z,99208.63
2023-05-14T23:17:23.102Z,99197.22
2023-05-14T23:22:26.726Z,99195.34
2023-05-14T23:27:31.190Z,99198.44
2023-05-14T23:32:34.380Z,99198.91
2023-05-14T23:37:41.880Z,99185.16
2023-05-14T23:42:46.871Z,99174.31
2023-05-14T23:47:50.422Z,99163.13
2023-05-14T23:52:54.472Z,99181.09
2023-05-14T23:57:59.379Z,99181.75
